createdAt,value
2022-08-01T00:00:09.042Z,100889.47
2022-08-01T00:02:38.924Z,100906.72
2022-08-01T00:05:07.186Z,100893.75
2022-08-01T00:07:34.498Z,100898.28
2022-08-01T00:10:01.892Z,100892.94
2022-08-01T00:12:28.598Z,100899.50
2022-08-01T00:14:55.224Z,100906.28
2022-08-01T00:17:21.991Z,100899.59
2022-08-01T00:19:48.567Z,100899.50
2022-08-01T00:22:15.232Z,100900.34
2022-08-01T00:24:41.891Z,100894.94
2022-08-01T00:27:08.566Z,100907.75
2022-08-01T00:30:09.642Z,100899.81
2022-08-01T00:32:21.888Z,100909.38
2022-08-01T00:34:48.893Z,100898.03
2022-08-01T00:37:16.464Z,100886.97
2022-08-01T00:39:43.687Z,100898.44
2022-08-01T00:42:12.427Z,100908.84
2022-08-01T00:44:40.292Z,100907.50
2022-08-01T00:47:08.074Z,100912.91
2022-08-01T00:49:35.748Z,100898.34
2022-08-01T00:52:06.335Z,100904.44
2022-08-01T00:54:33.384Z,100900.94
2022-08-01T00:57:00.728Z,100913.31
2022-08-01T00:59:27.699Z,100904.25
2022-08-01T01:01:56.100Z,100903.41
2022-08-01T01:04:23.234Z,100901.22
2022-08-01T01:06:58.406Z,100912.75
2022-08-01T01:09:47.199Z,100905.44
2022-08-01T01:12:19.898Z,100892.22
2022-08-01T01:15:15.206Z,100902.25
2022-08-01T01:18:00.959Z,100905.78
2022-08-01T01:20:36.865Z,100904.78
2022-08-01T01:23:27.822Z,100899.19
2022-08-01T01:25:54.381Z,100897.00
2022-08-01T01:28:44.484Z,100900.34
2022-08-01T01:31:13.968Z,100902.81
2022-08-01T01:33:45.115Z,100904.72
2022-08-01T01:36:17.604Z,100895.13
2022-08-01T01:38:47.329Z,100899.63
2022-08-01T01:41:16.603Z,100902.91
2022-08-01T01:43:44.621Z,100899.44
2022-08-01T01:46:16.466Z,100902.06
2022-08-01T01:48:45.940Z,100904.50
2022-08-01T01:51:15.814Z,100904.75
2022-08-01T01:53:44.342Z,100897.97
2022-08-01T01:56:12.656Z,100899.75
2022-08-01T01:58:40.411Z,100895.25
2022-08-01T02:01:09.716Z,100887.97
2022-08-01T02:03:44.329Z,100887.56
2022-08-01T02:06:14.641Z,100887.75
2022-08-01T02:08:43.014Z,100879.19
2022-08-01T02:11:19.673Z,100880.53
2022-08-01T02:14:00.606Z,100875.78
2022-08-01T02:16:32.485Z,100877.78
2022-08-01T02:18:59.244Z,100863.25
2022-08-01T02:21:33.504Z,100868.38
2022-08-01T02:24:19.076Z,100858.75
2022-08-01T02:26:50.187Z,100865.78
2022-08-01T02:29:23.947Z,100862.59
2022-08-01T02:31:55.560Z,100863.09
2022-08-01T02:34:26.454Z,100864.59
2022-08-01T02:36:55.484Z,100873.19
2022-08-01T02:39:24.834Z,100861.69
2022-08-01T02:41:57.965Z,100861.16
2022-08-01T02:44:29.126Z,100857.78
2022-08-01T02:47:03.086Z,100858.75
2022-08-01T02:49:36.253Z,100855.09
2022-08-01T02:52:08.251Z,100849.50
2022-08-01T02:54:37.023Z,100849.19
2022-08-01T02:57:06.735Z,100854.34
2022-08-01T02:59:38.138Z,100841.38
2022-08-01T03:02:09.265Z,100840.22
2022-08-01T03:04:38.950Z,100836.31
2022-08-01T03:07:08.641Z,100843.59
2022-08-01T03:09:39.644Z,100842.50
2022-08-01T03:12:14.723Z,100830.16
2022-08-01T03:14:43.948Z,100832.25
2022-08-01T03:17:12.364Z,100838.34
2022-08-01T03:19:40.270Z,100839.81
2022-08-01T03:22:09.783Z,100843.28
2022-08-01T03:24:41.134Z,100836.78
2022-08-01T03:27:09.507Z,100832.94
2022-08-01T03:29:37.090Z,100840.91
2022-08-01T03:32:05.357Z,100827.50
2022-08-01T03:34:32.466Z,100836.69
2022-08-01T03:37:13.358Z,100844.13
2022-08-01T03:39:50.503Z,100839.06
2022-08-01T03:42:33.844Z,100847.00
2022-08-01T03:45:07.609Z,100844.28
2022-08-01T03:47:43.540Z,100846.75
2022-08-01T03:50:14.483Z,100833.09
2022-08-01T03:52:44.478Z,100846.19
2022-08-01T03:55:13.746Z,100849.31
2022-08-01T03:57:41.802Z,100845.75
2022-08-01T04:00:09.891Z,100837.13
2022-08-01T04:02:40.154Z,100843.91
2022-08-01T04:05:08.103Z,100849.53
2022-08-01T04:07:37.738Z,100851.16
2022-08-01T04:10:05.358Z,100847.69
2022-08-01T04:12:33.578Z,100849.31
2022-08-01T04:15:00.183Z,100846.69
2022-08-01T04:17:26.920Z,100841.09
2022-08-01T04:19:53.550Z,100840.25
2022-08-01T04:22:20.504Z,100849.22
2022-08-01T04:24:56.859Z,100846.50
2022-08-01T04:27:48.423Z,100853.41
2022-08-01T04:30:22.088Z,100847.34
2022-08-01T04:32:50.741Z,100847.34
2022-08-01T04:35:23.132Z,100854.63
2022-08-01T04:38:10.244Z,100862.44
2022-08-01T04:40:37.455Z,100862.34
2022-08-01T04:43:04.469Z,100858.88
2022-08-01T04:45:33.527Z,100861.59
2022-08-01T04:48:00.773Z,100868.72
2022-08-01T04:50:28.290Z,100877.25
2022-08-01T04:52:55.455Z,100878.91
2022-08-01T04:55:22.096Z,100877.28
2022-08-01T04:57:49.114Z,100874.81
2022-08-01T05:00:17.407Z,100869.56
2022-08-01T05:02:44.497Z,100876.25
2022-08-01T05:05:11.432Z,100875.78
2022-08-01T05:07:45.499Z,100880.22
2022-08-01T05:10:12.609Z,100871.63
2022-08-01T05:12:39.226Z,100883.84
2022-08-01T05:15:10.580Z,100873.13
2022-08-01T05:17:43.134Z,100884.19
2022-08-01T05:20:10.734Z,100887.59
2022-08-01T05:22:37.460Z,100877.16
2022-08-01T05:25:05.855Z,100888.34
2022-08-01T05:27:33.504Z,100884.53
2022-08-01T05:30:00.608Z,100894.59
2022-08-01T05:32:28.122Z,100891.47
2022-08-01T05:34:54.765Z,100889.63
2022-08-01T05:37:21.445Z,100896.47
2022-08-01T05:39:48.132Z,100908.34
2022-08-01T05:42:15.050Z,100910.19
2022-08-01T05:44:41.698Z,100907.00
2022-08-01T05:47:08.335Z,100903.09
2022-08-01T05:49:35.137Z,100902.59
2022-08-01T05:52:02.824Z,100906.50
2022-08-01T05:54:29.933Z,100900.03
2022-08-01T05:57:00.425Z,100890.75
2022-08-01T05:59:27.434Z,100900.91
2022-08-01T06:01:54.059Z,100907.75
2022-08-01T06:04:20.736Z,100902.56
2022-08-01T06:06:47.317Z,100900.44
2022-08-01T06:09:14.162Z,100896.75
2022-08-01T06:11:41.400Z,100908.84
2022-08-01T06:14:08.078Z,100906.66
2022-08-01T06:16:34.680Z,100908.69
2022-08-01T06:19:01.431Z,100907.31
2022-08-01T06:21:28.189Z,100906.81
2022-08-01T06:23:54.816Z,100901.78
2022-08-01T06:26:21.505Z,100895.53
2022-08-01T06:28:48.174Z,100905.44
2022-08-01T06:31:15.643Z,100897.66
2022-08-01T06:33:42.647Z,100896.72
2022-08-01T06:36:10.233Z,100902.06
2022-08-01T06:38:37.193Z,100906.22
2022-08-01T06:41:03.821Z,100904.09
2022-08-01T06:43:30.636Z,100906.97
2022-08-01T06:45:57.224Z,100909.06
2022-08-01T06:48:23.908Z,100915.25
2022-08-01T06:51:08.445Z,100921.19
2022-08-01T06:53:36.770Z,100909.00
2022-08-01T06:56:04.469Z,100909.19
2022-08-01T06:58:31.812Z,100916.88
2022-08-01T07:00:58.865Z,100920.94
2022-08-01T07:03:26.537Z,100915.72
2022-08-01T07:06:13.258Z,100921.38
2022-08-01T07:08:41.748Z,100917.47
2022-08-01T07:11:08.770Z,100909.19
2022-08-01T07:13:43.973Z,100906.84
2022-08-01T07:16:13.514Z,100904.28
2022-08-01T07:18:40.527Z,100900.63
2022-08-01T07:21:07.279Z,100899.75
2022-08-01T07:23:45.800Z,100895.50
2022-08-01T07:26:14.110Z,100898.63
2022-08-01T07:28:44.018Z,100896.81
2022-08-01T07:31:10.862Z,100910.84
2022-08-01T07:33:49.018Z,100905.72
2022-08-01T07:36:19.695Z,100904.44
2022-08-01T07:38:47.118Z,100903.03
2022-08-01T07:41:13.832Z,100904.28
2022-08-01T07:43:40.612Z,100906.09
2022-08-01T07:46:07.722Z,100912.47
2022-08-01T07:48:34.773Z,100914.38
2022-08-01T07:51:01.577Z,100911.94
2022-08-01T07:53:28.342Z,100910.47
2022-08-01T07:55:54.935Z,100920.50
2022-08-01T07:58:21.607Z,100917.25
2022-08-01T08:00:48.350Z,100916.34
2022-08-01T08:03:15.030Z,100919.94
2022-08-01T08:05:57.629Z,100925.16
2022-08-01T08:08:26.612Z,100916.84
2022-08-01T08:10:53.987Z,100913.09
2022-08-01T08:13:20.964Z,100906.53
2022-08-01T08:15:48.630Z,100920.28
2022-08-01T08:18:16.180Z,100925.31
2022-08-01T08:20:42.982Z,100922.91
2022-08-01T08:23:42.801Z,100924.06
2022-08-01T08:26:13.554Z,100921.41
2022-08-01T08:28:40.898Z,100922.56
2022-08-01T08:31:25.468Z,100916.25
2022-08-01T08:33:56.020Z,100924.78
2022-08-01T08:36:22.704Z,100922.78
2022-08-01T08:39:01.280Z,100915.34
2022-08-01T08:41:28.184Z,100917.09
2022-08-01T08:44:06.569Z,100925.38
2022-08-01T08:46:45.613Z,100929.38
2022-08-01T08:49:16.145Z,100923.66
2022-08-01T08:51:45.568Z,100924.56
2022-08-01T08:54:14.065Z,100929.22
2022-08-01T08:56:42.455Z,100930.53
2022-08-01T08:59:09.442Z,100932.13
2022-08-01T09:01:36.696Z,100936.03
2022-08-01T09:04:04.624Z,100936.63
2022-08-01T09:06:32.168Z,100943.91
2022-08-01T09:08:59.271Z,100934.66
2022-08-01T09:11:26.609Z,100940.25
2022-08-01T09:14:12.807Z,100930.38
2022-08-01T09:16:48.841Z,100932.84
2022-08-01T09:19:40.170Z,100931.88
2022-08-01T09:22:08.352Z,100946.50
2022-08-01T09:24:36.294Z,100943.56
2022-08-01T09:27:19.848Z,100937.44
2022-08-01T09:29:49.875Z,100947.84
2022-08-01T09:32:31.424Z,100955.50
2022-08-01T09:35:24.381Z,100949.59
2022-08-01T09:38:15.386Z,100936.66
2022-08-01T09:40:55.775Z,100939.03
2022-08-01T09:43:27.643Z,100935.59
2022-08-01T09:45:55.397Z,100941.97
2022-08-01T09:48:28.490Z,100949.72
2022-08-01T09:51:04.018Z,100962.97
2022-08-01T09:53:43.539Z,100974.72
2022-08-01T09:56:18.385Z,100977.13
2022-08-01T09:58:58.347Z,100982.47
2022-08-01T10:01:26.831Z,100977.59
2022-08-01T10:04:05.325Z,100975.22
2022-08-01T10:06:32.678Z,100984.66
2022-08-01T10:08:59.588Z,100979.72
2022-08-01T10:11:36.711Z,100983.97
2022-08-01T10:14:06.618Z,100975.59
2022-08-01T10:16:37.246Z,100977.94
2022-08-01T10:19:11.279Z,100965.69
2022-08-01T10:21:57.917Z,100976.03
2022-08-01T10:24:28.403Z,100974.22
2022-08-01T10:27:07.964Z,100971.72
2022-08-01T10:29:59.046Z,100971.34
2022-08-01T10:32:28.995Z,100970.84
2022-08-01T10:34:56.398Z,100980.25
2022-08-01T10:37:24.099Z,100982.22
2022-08-01T10:40:27.144Z,100988.03
2022-08-01T10:42:46.290Z,100977.25
2022-08-01T10:45:16.118Z,100987.47
2022-08-01T10:48:05.246Z,100981.41
2022-08-01T10:50:40.995Z,100988.44
2022-08-01T10:53:15.892Z,100984.06
2022-08-01T10:56:02.665Z,100982.81
2022-08-01T10:58:44.591Z,100985.72
2022-08-01T11:01:30.494Z,100983.78
2022-08-01T11:04:01.894Z,100984.53
2022-08-01T11:06:34.813Z,100984.06
2022-08-01T11:09:16.763Z,100974.75
2022-08-01T11:12:13.086Z,100973.81
2022-08-01T11:15:03.044Z,100979.50
2022-08-01T11:17:54.519Z,100983.31
2022-08-01T11:20:27.336Z,100972.09
2022-08-01T11:23:00.091Z,100979.16
2022-08-01T11:26:03.287Z,100975.88
2022-08-01T11:28:15.345Z,100978.78
2022-08-01T11:30:43.530Z,100965.00
2022-08-01T11:33:12.128Z,100963.03
2022-08-01T11:35:59.159Z,100971.41
2022-08-01T11:38:29.085Z,100972.47
2022-08-01T11:41:16.270Z,100969.22
2022-08-01T11:44:02.784Z,100972.09
2022-08-01T11:46:57.504Z,100980.28
2022-08-01T11:49:35.086Z,100985.88
2022-08-01T11:52:02.822Z,100993.03
2022-08-01T11:54:35.246Z,100984.06
2022-08-01T11:57:06.521Z,100977.06
2022-08-01T12:00:02.852Z,100972.53
2022-08-01T12:02:31.126Z,100967.09
2022-08-01T12:05:04.791Z,100980.41
2022-08-01T12:07:33.568Z,100973.78
2022-08-01T12:10:10.453Z,100981.00
2022-08-01T12:12:44.653Z,100983.00
2022-08-01T12:15:13.229Z,100987.75
2022-08-01T12:17:45.128Z,100974.31
2022-08-01T12:20:25.105Z,100976.38
2022-08-01T12:22:56.551Z,100978.31
2022-08-01T12:25:23.568Z,100983.88
2022-08-01T12:27:55.758Z,100996.78
2022-08-01T12:30:24.717Z,100988.81
2022-08-01T12:32:52.520Z,101003.22
2022-08-01T12:35:23.847Z,100987.38
2022-08-01T12:37:52.515Z,100991.09
2022-08-01T12:40:26.070Z,100991.75
2022-08-01T12:42:55.486Z,100991.53
2022-08-01T12:45:27.450Z,100986.81
2022-08-01T12:47:55.091Z,100982.28
2022-08-01T12:50:26.714Z,100975.47
2022-08-01T12:52:53.498Z,100979.94
2022-08-01T12:55:25.466Z,100982.28
2022-08-01T12:58:20.336Z,100985.16
2022-08-01T13:00:49.773Z,100984.09
2022-08-01T13:03:18.686Z,100978.97
2022-08-01T13:05:47.813Z,100978.97
2022-08-01T13:08:19.199Z,100974.50
2022-08-01T13:10:45.969Z,100973.44
2022-08-01T13:13:22.350Z,100976.22
2022-08-01T13:16:06.199Z,100972.88
2022-08-01T13:18:35.257Z,100978.03
2022-08-01T13:21:13.129Z,100972.19
2022-08-01T13:24:03.323Z,100960.09
2022-08-01T13:26:50.208Z,100973.72
2022-08-01T13:29:19.147Z,100976.53
2022-08-01T13:31:46.121Z,100979.25
2022-08-01T13:34:13.003Z,100978.97
2022-08-01T13:36:44.214Z,100982.97
2022-08-01T13:39:33.882Z,100988.31
2022-08-01T13:42:00.482Z,100985.66
2022-08-01T13:44:27.134Z,100989.81
2022-08-01T13:46:53.740Z,100986.69
2022-08-01T13:49:22.837Z,100981.09
2022-08-01T13:51:51.414Z,100986.97
2022-08-01T13:54:19.020Z,100986.28
2022-08-01T13:56:45.725Z,100987.72
2022-08-01T13:59:12.843Z,100990.09
2022-08-01T14:01:39.844Z,100981.50
2022-08-01T14:04:06.429Z,100991.97
2022-08-01T14:06:33.767Z,100991.66
2022-08-01T14:09:01.173Z,100980.31
2022-08-01T14:11:36.905Z,100990.25
2022-08-01T14:14:04.466Z,100978.16
2022-08-01T14:16:31.321Z,100991.09
2022-08-01T14:18:58.023Z,100975.78
2022-08-01T14:21:24.629Z,100976.63
2022-08-01T14:23:51.321Z,100977.50
2022-08-01T14:26:17.979Z,100964.47
2022-08-01T14:28:44.723Z,100973.56
2022-08-01T14:31:11.458Z,100972.97
2022-08-01T14:33:38.160Z,100979.50
2022-08-01T14:36:30.182Z,100973.91
2022-08-01T14:38:51.863Z,100968.78
2022-08-01T14:41:18.459Z,100966.84
2022-08-01T14:43:45.478Z,100959.53
2022-08-01T14:46:13.262Z,100978.00
2022-08-01T14:48:39.936Z,100968.47
2022-08-01T14:51:07.981Z,100969.06
2022-08-01T14:53:37.209Z,100964.00
2022-08-01T14:56:07.840Z,100961.22
2022-08-01T14:58:34.749Z,100959.56
2022-08-01T15:01:01.912Z,100960.69
2022-08-01T15:03:28.645Z,100965.72
2022-08-01T15:05:55.329Z,100967.44
2022-08-01T15:08:21.994Z,100982.13
2022-08-01T15:10:48.642Z,100972.03
2022-08-01T15:13:15.572Z,100974.84
2022-08-01T15:15:42.233Z,100974.53
2022-08-01T15:18:08.885Z,100964.66
2022-08-01T15:20:35.488Z,100974.72
2022-08-01T15:23:02.217Z,100982.63
2022-08-01T15:25:42.023Z,100986.63
2022-08-01T15:28:11.085Z,100988.88
2022-08-01T15:30:37.867Z,100988.63
2022-08-01T15:33:04.594Z,100992.53
2022-08-01T15:35:31.235Z,100984.38
2022-08-01T15:37:57.887Z,100992.53
2022-08-01T15:40:24.675Z,100990.91
2022-08-01T15:42:52.997Z,100986.66
2022-08-01T15:45:45.871Z,100978.81
2022-08-01T15:48:08.502Z,100978.78
2022-08-01T15:50:35.364Z,100976.53
2022-08-01T15:53:02.109Z,100980.16
2022-08-01T15:55:28.724Z,100979.59
2022-08-01T15:57:55.627Z,100986.06
2022-08-01T16:00:22.238Z,100977.34
2022-08-01T16:02:49.044Z,100986.63
2022-08-01T16:05:17.115Z,100970.84
2022-08-01T16:07:59.686Z,100975.06
2022-08-01T16:10:29.489Z,100984.38
2022-08-01T16:12:56.352Z,100978.16
2022-08-01T16:15:22.989Z,100977.59
2022-08-01T16:18:03.876Z,100985.81
2022-08-01T16:20:30.557Z,100978.47
2022-08-01T16:22:57.309Z,100971.47
2022-08-01T16:25:24.018Z,100978.72
2022-08-01T16:27:50.620Z,100975.06
2022-08-01T16:30:17.291Z,100975.16
2022-08-01T16:32:50.259Z,100974.63
2022-08-01T16:35:21.378Z,100981.34
2022-08-01T16:37:51.145Z,100973.78
2022-08-01T16:40:17.903Z,100970.13
2022-08-01T16:42:45.636Z,100966.16
2022-08-01T16:45:14.297Z,100971.50
2022-08-01T16:47:41.725Z,100972.94
2022-08-01T16:50:09.626Z,100969.25
2022-08-01T16:52:42.213Z,100975.75
2022-08-01T16:55:10.396Z,100954.91
2022-08-01T16:57:38.325Z,100967.28
2022-08-01T17:00:21.321Z,100966.72
2022-08-01T17:02:49.635Z,100961.31
2022-08-01T17:05:16.312Z,100974.00
2022-08-01T17:07:43.092Z,100977.13
2022-08-01T17:10:10.162Z,100979.97
2022-08-01T17:12:36.941Z,100977.41
2022-08-01T17:15:04.105Z,100974.06
2022-08-01T17:17:30.714Z,100977.69
2022-08-01T17:19:57.426Z,100980.53
2022-08-01T17:22:24.072Z,100983.03
2022-08-01T17:24:53.422Z,100984.66
2022-08-01T17:27:20.264Z,100987.47
2022-08-01T17:29:46.998Z,100987.19
2022-08-01T17:32:14.120Z,100985.47
2022-08-01T17:34:42.405Z,100987.19
2022-08-01T17:37:10.172Z,100990.34
2022-08-01T17:39:39.187Z,100992.25
2022-08-01T17:42:07.894Z,100985.56
2022-08-01T17:44:34.519Z,100985.59
2022-08-01T17:47:01.320Z,100980.53
2022-08-01T17:49:53.467Z,100983.28
2022-08-01T17:52:14.833Z,100983.81
2022-08-01T17:54:41.724Z,100984.03
2022-08-01T17:57:08.942Z,100989.31
2022-08-01T17:59:36.083Z,100995.44
2022-08-01T18:02:02.720Z,101001.63
2022-08-01T18:04:31.492Z,100999.50
2022-08-01T18:07:00.933Z,100985.47
2022-08-01T18:09:32.365Z,100990.84
2022-08-01T18:11:59.789Z,100991.16
2022-08-01T18:14:40.014Z,100993.38
2022-08-01T18:17:07.963Z,100997.84
2022-08-01T18:19:38.620Z,100996.75
2022-08-01T18:22:05.770Z,100995.34
2022-08-01T18:24:46.165Z,100988.84
2022-08-01T18:27:12.806Z,100996.66
2022-08-01T18:29:47.087Z,101001.38
2022-08-01T18:32:15.035Z,101008.38
2022-08-01T18:34:41.728Z,101005.28
2022-08-01T18:37:09.008Z,101004.44
2022-08-01T18:39:35.853Z,101010.63
2022-08-01T18:42:02.875Z,101005.00
2022-08-01T18:44:30.088Z,101010.66
2022-08-01T18:46:56.900Z,101015.09
2022-08-01T18:49:23.679Z,101008.94
2022-08-01T18:51:50.330Z,101013.41
2022-08-01T18:54:17.188Z,101017.06
2022-08-01T18:56:44.729Z,101021.84
2022-08-01T18:59:12.275Z,101028.28
2022-08-01T19:01:39.721Z,101015.00
2022-08-01T19:04:06.974Z,101018.94
2022-08-01T19:06:33.855Z,101016.09
2022-08-01T19:09:02.631Z,101021.09
2022-08-01T19:11:33.805Z,101023.28
2022-08-01T19:14:02.376Z,101015.59
2022-08-01T19:16:29.531Z,101019.47
2022-08-01T19:18:56.235Z,101028.56
2022-08-01T19:21:23.455Z,101020.41
2022-08-01T19:24:08.557Z,101025.38
2022-08-01T19:26:36.914Z,101041.63
2022-08-01T19:29:12.079Z,101043.59
2022-08-01T19:31:44.354Z,101045.84
2022-08-01T19:34:13.180Z,101052.69
2022-08-01T19:36:39.942Z,101050.53
2022-08-01T19:39:10.006Z,101051.91
2022-08-01T19:41:38.322Z,101051.53
2022-08-01T19:44:07.318Z,101055.91
2022-08-01T19:46:34.020Z,101049.19
2022-08-01T19:49:00.708Z,101055.34
2022-08-01T19:51:33.677Z,101050.53
2022-08-01T19:54:04.843Z,101053.03
2022-08-01T19:56:39.556Z,101055.81
2022-08-01T19:59:09.899Z,101061.84
2022-08-01T20:01:37.487Z,101067.53
2022-08-01T20:04:04.724Z,101062.34
2022-08-01T20:06:31.955Z,101071.47
2022-08-01T20:08:59.902Z,101066.03
2022-08-01T20:11:27.025Z,101082.50
2022-08-01T20:13:56.714Z,101078.53
2022-08-01T20:16:28.384Z,101081.91
2022-08-01T20:18:56.089Z,101074.84
2022-08-01T20:21:25.038Z,101073.19
2022-08-01T20:23:53.318Z,101081.66
2022-08-01T20:26:30.582Z,101087.06
2022-08-01T20:28:57.960Z,101091.25
2022-08-01T20:31:43.147Z,101091.53
2022-08-01T20:34:15.620Z,101095.19
2022-08-01T20:36:43.709Z,101102.72
2022-08-01T20:39:21.610Z,101095.06
2022-08-01T20:41:59.950Z,101090.97
2022-08-01T20:44:31.286Z,101081.44
2022-08-01T20:46:59.170Z,101078.66
2022-08-01T20:49:26.610Z,101080.56
2022-08-01T20:51:53.611Z,101077.44
2022-08-01T20:54:20.563Z,101072.91
2022-08-01T20:57:09.325Z,101072.22
2022-08-01T20:59:57.446Z,101073.41
2022-08-01T21:02:30.293Z,101062.97
2022-08-01T21:05:11.723Z,101068.75
2022-08-01T21:07:51.504Z,101070.91
2022-08-01T21:10:24.505Z,101076.97
2022-08-01T21:13:02.396Z,101073.72
2022-08-01T21:15:39.513Z,101073.56
2022-08-01T21:18:33.712Z,101080.00
2022-08-01T21:21:03.951Z,101079.66
2022-08-01T21:23:47.703Z,101084.72
2022-08-01T21:26:14.507Z,101081.59
2022-08-01T21:28:41.574Z,101084.91
2022-08-01T21:31:21.975Z,101087.97
2022-08-01T21:34:02.323Z,101092.06
2022-08-01T21:36:31.193Z,101082.72
2022-08-01T21:38:59.347Z,101079.16
2022-08-01T21:42:05.033Z,101091.34
2022-08-01T21:44:16.573Z,101093.28
2022-08-01T21:46:43.716Z,101087.78
2022-08-01T21:49:11.562Z,101087.97
2022-08-01T21:51:45.460Z,101088.66
2022-08-01T21:54:28.333Z,101080.78
2022-08-01T21:57:22.244Z,101086.53
2022-08-01T22:00:10.798Z,101082.00
2022-08-01T22:02:49.725Z,101085.75
2022-08-01T22:05:24.858Z,101089.97
2022-08-01T22:08:12.622Z,101087.06
2022-08-01T22:10:39.485Z,101084.09
2022-08-01T22:13:06.815Z,101079.91
2022-08-01T22:15:44.469Z,101085.22
2022-08-01T22:18:12.078Z,101085.41
2022-08-01T22:20:39.205Z,101094.88
2022-08-01T22:23:06.476Z,101096.38
2022-08-01T22:25:33.591Z,101096.31
2022-08-01T22:28:08.468Z,101106.81
2022-08-01T22:30:39.728Z,101095.56
2022-08-01T22:33:16.328Z,101098.22
2022-08-01T22:35:49.707Z,101098.81
2022-08-01T22:38:19.142Z,101106.25
2022-08-01T22:40:50.708Z,101103.13
2022-08-01T22:43:35.065Z,101106.53
2022-08-01T22:46:20.165Z,101098.84
2022-08-01T22:48:56.505Z,101096.66
2022-08-01T22:51:32.078Z,101092.84
2022-08-01T22:54:06.366Z,101091.88
2022-08-01T22:56:39.079Z,101080.69
2022-08-01T22:59:11.206Z,101076.78
2022-08-01T23:01:42.553Z,101086.13
2022-08-01T23:04:34.116Z,101081.53
2022-08-01T23:07:05.473Z,101091.50
2022-08-01T23:09:39.162Z,101090.50
2022-08-01T23:12:23.790Z,101082.72
2022-08-01T23:14:55.609Z,101085.28
2022-08-01T23:17:27.734Z,101089.53
2022-08-01T23:20:05.422Z,101091.22
2022-08-01T23:22:33.825Z,101086.88
2022-08-01T23:25:07.248Z,101094.53
2022-08-01T23:27:51.470Z,101088.22
2022-08-01T23:30:28.770Z,101081.16
2022-08-01T23:32:55.667Z,101075.56
2022-08-01T23:35:22.833Z,101071.84
2022-08-01T23:37:51.112Z,101061.03
2022-08-01T23:40:18.769Z,101074.97
2022-08-01T23:42:45.766Z,101068.91
2022-08-01T23:45:12.482Z,101072.09
2022-08-01T23:47:39.157Z,101077.53
2022-08-01T23:50:07.699Z,101065.91
2022-08-01T23:52:36.809Z,101068.66
2022-08-01T23:55:16.376Z,101070.97
2022-08-01T23:57:43.660Z,101074.13
